logo
Rechercher aéroport 
image banner adimage banner adimage banner ad
image banner ad

CL10 - Anacapa View Estates

Situé à Malibu, United States

ICAO - CL10, IATA -

Données fournies par Airmate  

Information générale

Coordonnées: N34°2'32" W118°51'12"
Élévation : 625 feet MSL.
Variation magnétique : 14° East
Voir autres Aéroports à California

Données opérationnelles

Special qualification required
Heure actuelle UTC:
Heure actuelle locale:
METAR: KNTD 011555Z 12007KT 7SM SCT028 21/14 A2988 RMK AO2 SLP121 WND ESTMD T02110144 PNO $
TAF: TAF KNTD 0115/0215 VRB06KT 9000 BR FEW010 BKN020 QNH2980INS FM012200 VRB06KT 9000 HZ SCT020 QNH2981INS BECMG 0203/0205 VRB06KT 9999 BKN010 QNH2981INS T22/0121Z T14/0212Z FS30201
Voir NOTAMs / SUP AIP / TFR affectant cet aéroport [VIEW]
Fréquences de communication: [VIEW]

Pistes:

Coordonnées de l'aéroport

Adresse: Malibu United States

Vue satellite de CL10